Portada
METAR-TAF:

METAR-TAF

Aeroports :

Izumo, Japó

latitud: 35-25N, longitud: 132-54E, altitud: 2 m

Observació

L'informe es va fer fa 4 hores i 57 minuts, a les 11:00 UTC
Vent 3 kt del Sud/Sud-Est
Temperatura 17°C
Humitat 72%
Pressió 1015 hPa
Visibilitat 10 km o més
Escasses núvols a una alçada de 4000 ft
Cel ennuvolat a una alçada de 18000 ft

METAR: RJOC 061100Z 15003KT 9999 FEW040 BKN180 17/12 Q1015

Hora: 00:57 (15:57 UTC)

Pronòstic

L'informe es va fer fa 4 hores i 52 minuts, a les 11:05 UTC
Pronòstic vàlid del 06 a les 12 UTC al 07 a les 18 UTC
Vent 5 kt del Sud/Sud-Est
Visibilitat 10 km o més
Escasses núvols a una alçada de 3000 ft
Evolucionant progressivament
l' 07 a les 12 UTC al 07 a les 15 UTC
Vent 14 kt del Oest/Sud-Oest

TAF: RJOC 061105Z 0612/0718 16005KT 9999 FEW030 BECMG 0712/0715 24014KT

Observacions i pronòstics meteorològics de més de 4000 aeroports (METAR i TAF).

Les estacions disponibles són els punts grocs i vermells al mapa.

Posi el ratolí al punt desitjat per veure el nom de l'estació.

Feu clic per veure les observacions i els pronòstics meteorològics.

Per canviar el mapa: feu clic els botons verds amb una creu de color negre per apropar; al botó verd amb un guió per allunyar la imatge; o en les fletxes verdes per a mapes adjacents.


METAR-TAF: